Etusivu
METAR-TAF:

METAR-TAF

Lentoasemat :

New Ulm Municipal Airport

New Ulm, Minnesota, Yhdysvallat

Leveyspiiri: 44-19N, Pituuspiiri: 094-30W, korkeus merenpinnasta: 308 m

Tämänhetkinen sää

Tämä raportti tehtiin 9 minuuttia sitten, kello 13.55 UTC
Tuuli 9 kn lännestä
Lämpötila 12°C
Kosteus 67%
Ilmanpaine 1007 hPa
Näkyvyys: 16.1 km
selkeää

METAR: KULM 271355Z AUTO 27009KT 10SM CLR 12/06 A2974 RMK AO2

Aika: 09:04 (14:04 UTC)


TAF: puuttuu

Säähavainnot ja -ennusteet yli 4000 lentoasemalta (METAR- ja TAF-raportit).

Käytössä olevat sääasemat on merkitty karttaan keltaisilla ja punaisilla pisteillä.

Aseta hiiri pisteen päälle nähdäksesi sääaseman nimen.

Klikkaa sitten nähdäksesi säähavainnot ja -ennusteet.

Kartan vaihtaminen: klikkaa mustalla rastilla varustettuja vihreitä pisteitä, niin voit zoomata sisään; viivalla varustettua vihreää pistettä, niin voit zoomata ulos tai vihreitä nuolia, niin pääset viereisille kartoille.


METAR-TAF: